createdAt,value
2017-08-15T00:00:52.139Z,2.90
2017-08-15T00:03:19.867Z,3.17
2017-08-15T00:05:47.520Z,3.27
2017-08-15T00:08:15.215Z,3.03
2017-08-15T00:10:42.858Z,3.07
2017-08-15T00:13:10.845Z,3.90
2017-08-15T00:15:38.487Z,3.30
2017-08-15T00:18:06.151Z,3.03
2017-08-15T00:20:33.864Z,3.00
2017-08-15T00:23:01.511Z,3.40
2017-08-15T00:25:29.202Z,3.07
2017-08-15T00:27:56.854Z,2.90
2017-08-15T00:30:24.580Z,3.50
2017-08-15T00:32:52.243Z,3.00
2017-08-15T00:35:20.719Z,3.23
2017-08-15T00:37:48.382Z,3.03
2017-08-15T00:40:16.846Z,2.80
2017-08-15T00:42:44.526Z,3.33
2017-08-15T00:45:12.998Z,3.40
2017-08-15T00:47:40.659Z,3.40
2017-08-15T00:50:09.139Z,3.37
2017-08-15T00:52:37.607Z,3.50
2017-08-15T00:55:05.307Z,3.50
2017-08-15T01:00:07.084Z,3.50
2017-08-15T01:02:34.799Z,3.43
2017-08-15T01:05:02.502Z,2.80
2017-08-15T01:07:30.145Z,3.47
2017-08-15T01:09:57.831Z,3.50
2017-08-15T01:12:25.491Z,3.20
2017-08-15T01:14:53.178Z,3.37
2017-08-15T01:17:20.823Z,4.10
2017-08-15T01:19:48.523Z,3.50
2017-08-15T01:22:17.056Z,3.50
2017-08-15T01:24:44.706Z,3.73
2017-08-15T01:27:12.412Z,3.53
2017-08-15T01:29:40.067Z,3.00
2017-08-15T01:32:07.768Z,3.47
2017-08-15T01:34:35.419Z,3.50
2017-08-15T01:37:03.114Z,4.00
2017-08-15T01:39:30.758Z,4.20
2017-08-15T01:41:58.455Z,3.00
2017-08-15T01:44:26.134Z,3.17
2017-08-15T01:46:54.602Z,2.80
2017-08-15T01:49:22.264Z,3.50
2017-08-15T01:51:49.951Z,3.47
2017-08-15T01:54:19.135Z,3.63
2017-08-15T01:56:47.600Z,3.23
2017-08-15T01:59:15.255Z,3.60
2017-08-15T02:01:42.955Z,3.47
2017-08-15T02:04:10.611Z,3.50
2017-08-15T02:06:38.631Z,3.33
2017-08-15T02:09:06.316Z,3.00
2017-08-15T02:11:34.743Z,3.13
2017-08-15T02:14:02.439Z,3.50
2017-08-15T02:16:30.097Z,3.83
2017-08-15T02:18:57.785Z,3.47
2017-08-15T02:21:26.207Z,3.50
2017-08-15T02:23:53.900Z,4.07
2017-08-15T02:26:21.552Z,3.60
2017-08-15T02:28:49.251Z,3.30
2017-08-15T02:31:16.903Z,3.10
2017-08-15T02:33:44.607Z,3.40
2017-08-15T02:36:12.251Z,3.50
2017-08-15T02:38:39.945Z,3.90
2017-08-15T02:41:07.596Z,3.20
2017-08-15T02:43:35.290Z,3.93
2017-08-15T02:46:03.707Z,3.73
2017-08-15T02:48:31.399Z,3.87
2017-08-15T02:50:59.046Z,3.80
2017-08-15T02:53:26.731Z,2.97
2017-08-15T02:55:54.383Z,4.03
2017-08-15T02:58:22.081Z,3.90
2017-08-15T03:00:49.723Z,4.50
2017-08-15T03:03:18.199Z,3.40
2017-08-15T03:05:46.611Z,3.40
2017-08-15T03:08:14.258Z,3.93
2017-08-15T03:10:41.947Z,4.70
2017-08-15T03:13:09.595Z,4.23
2017-08-15T03:15:37.286Z,3.57
2017-08-15T03:18:04.940Z,3.40
2017-08-15T03:20:32.631Z,3.30
2017-08-15T03:23:01.042Z,3.50
2017-08-15T03:25:28.733Z,3.93
2017-08-15T03:27:56.383Z,3.70
2017-08-15T03:30:24.074Z,4.43
2017-08-15T03:32:51.727Z,3.57
2017-08-15T03:35:19.435Z,3.30
2017-08-15T03:37:47.080Z,4.07
2017-08-15T03:40:15.548Z,3.80
2017-08-15T03:42:43.968Z,3.33
2017-08-15T03:45:11.664Z,3.40
2017-08-15T03:47:39.322Z,3.30
2017-08-15T03:50:07.012Z,3.90
2017-08-15T03:52:35.421Z,4.27
2017-08-15T03:55:03.124Z,3.53
2017-08-15T03:57:30.782Z,3.67
2017-08-15T03:59:58.471Z,5.20
2017-08-15T04:02:26.878Z,4.60
2017-08-15T04:04:54.570Z,6.37
2017-08-15T04:07:22.209Z,6.57
2017-08-15T04:09:49.859Z,5.50
2017-08-15T04:12:17.567Z,3.83
2017-08-15T04:14:45.223Z,4.47
2017-08-15T04:17:12.915Z,3.60
2017-08-15T04:19:40.571Z,3.70
2017-08-15T04:22:08.281Z,4.50
2017-08-15T04:24:35.930Z,3.60
2017-08-15T04:27:03.626Z,3.80
2017-08-15T04:29:31.271Z,4.00
2017-08-15T04:31:58.956Z,4.03
2017-08-15T04:34:27.371Z,3.60
2017-08-15T04:36:55.063Z,3.47
2017-08-15T04:39:22.713Z,4.27
2017-08-15T04:41:50.399Z,4.00
2017-08-15T04:44:18.047Z,3.47
2017-08-15T04:46:45.730Z,4.20
2017-08-15T04:49:14.147Z,3.73
2017-08-15T04:51:41.844Z,4.77
2017-08-15T04:54:09.495Z,5.93
2017-08-15T04:56:37.459Z,5.80
2017-08-15T04:59:05.115Z,4.20
2017-08-15T05:01:32.774Z,4.20
2017-08-15T05:04:00.463Z,3.90
2017-08-15T05:06:28.896Z,3.97
2017-08-15T05:08:56.582Z,3.80
2017-08-15T05:11:24.235Z,4.23
2017-08-15T05:13:51.923Z,4.13
2017-08-15T05:16:20.344Z,4.30
2017-08-15T05:18:48.058Z,3.87
2017-08-15T05:21:16.474Z,4.30
2017-08-15T05:23:44.205Z,9.10
2017-08-15T05:26:12.616Z,5.97
2017-08-15T05:28:40.300Z,4.47
2017-08-15T05:31:07.956Z,4.63
2017-08-15T05:33:35.643Z,4.10
2017-08-15T05:36:03.306Z,4.83
2017-08-15T05:38:31.003Z,5.27
2017-08-15T05:40:58.651Z,4.33
2017-08-15T05:43:26.347Z,4.87
2017-08-15T05:45:53.995Z,4.90
2017-08-15T05:48:21.687Z,4.10
2017-08-15T05:50:49.337Z,4.93
2017-08-15T05:53:17.032Z,4.47
2017-08-15T05:55:45.450Z,4.80
2017-08-15T05:58:13.098Z,4.17
2017-08-15T06:00:40.803Z,4.30
2017-08-15T06:03:08.458Z,3.80
2017-08-15T06:05:36.151Z,4.13
2017-08-15T06:08:04.567Z,3.63
2017-08-15T06:10:32.269Z,3.73
2017-08-15T06:12:59.927Z,4.23
2017-08-15T06:15:27.631Z,3.90
2017-08-15T06:17:55.283Z,4.17
2017-08-15T06:20:22.988Z,3.40
2017-08-15T06:22:50.646Z,4.10
2017-08-15T06:25:18.339Z,5.27
2017-08-15T06:27:46.755Z,4.10
2017-08-15T06:30:14.455Z,5.00
2017-08-15T06:32:42.099Z,4.20
2017-08-15T06:35:09.791Z,5.20
2017-08-15T06:37:38.207Z,4.67
2017-08-15T06:40:05.912Z,4.30
2017-08-15T06:42:33.560Z,4.43
2017-08-15T06:45:01.264Z,4.00
2017-08-15T06:47:28.912Z,4.47
2017-08-15T06:49:57.363Z,4.30
2017-08-15T06:52:25.016Z,4.30
2017-08-15T06:54:52.712Z,5.03
2017-08-15T06:57:20.397Z,4.23
2017-08-15T06:59:48.039Z,4.03
2017-08-15T07:02:15.728Z,4.43
2017-08-15T07:04:43.375Z,4.50
2017-08-15T07:07:11.085Z,4.57
2017-08-15T07:09:38.836Z,3.90
2017-08-15T07:12:06.527Z,3.90
2017-08-15T07:14:34.947Z,3.83
2017-08-15T07:17:02.643Z,4.20
2017-08-15T07:19:30.299Z,3.50
2017-08-15T07:21:57.986Z,3.90
2017-08-15T07:24:26.528Z,3.73
2017-08-15T07:26:54.224Z,3.70
2017-08-15T07:29:21.880Z,3.30
2017-08-15T07:31:49.574Z,3.57
2017-08-15T07:34:17.223Z,3.20
2017-08-15T07:36:44.914Z,3.57
2017-08-15T07:39:12.584Z,3.13
2017-08-15T07:41:40.267Z,3.23
2017-08-15T07:44:07.915Z,2.97
2017-08-15T07:46:35.610Z,3.40
2017-08-15T07:49:04.019Z,3.37
2017-08-15T07:51:31.663Z,3.90
2017-08-15T07:53:59.355Z,3.30
2017-08-15T07:56:26.999Z,3.40
2017-08-15T07:58:54.697Z,3.50
2017-08-15T08:01:22.342Z,3.40
2017-08-15T08:03:50.026Z,3.20
2017-08-15T08:06:17.667Z,3.33
2017-08-15T08:08:45.349Z,2.93
2017-08-15T08:11:12.995Z,3.17
2017-08-15T08:13:40.687Z,3.53
2017-08-15T08:16:08.333Z,3.00
2017-08-15T08:18:36.791Z,3.40
2017-08-15T08:21:04.436Z,3.20
2017-08-15T08:23:32.119Z,3.67
2017-08-15T08:25:59.766Z,3.20
2017-08-15T08:28:27.455Z,3.53
2017-08-15T08:30:55.866Z,3.33
2017-08-15T08:33:23.563Z,3.33
2017-08-15T08:35:51.218Z,3.53
2017-08-15T08:38:18.926Z,2.93
2017-08-15T08:40:46.578Z,3.63
2017-08-15T08:43:14.291Z,2.93
2017-08-15T08:45:41.946Z,3.60
2017-08-15T08:48:09.605Z,3.53
2017-08-15T08:50:37.302Z,3.50
2017-08-15T08:53:04.952Z,3.60
2017-08-15T08:55:32.642Z,3.30
2017-08-15T08:58:00.304Z,3.93
2017-08-15T09:00:28.053Z,3.23
2017-08-15T09:02:56.484Z,3.20
2017-08-15T09:05:24.215Z,3.30
2017-08-15T09:07:51.867Z,3.27
2017-08-15T09:10:19.572Z,3.33
2017-08-15T09:12:47.277Z,3.10
2017-08-15T09:15:15.010Z,4.20
2017-08-15T09:17:42.698Z,3.20
2017-08-15T09:20:10.431Z,3.50
2017-08-15T09:22:38.086Z,3.30
2017-08-15T09:25:05.791Z,2.80
2017-08-15T09:27:33.490Z,2.87
2017-08-15T09:30:01.180Z,3.17
2017-08-15T09:32:29.639Z,3.10
2017-08-15T09:34:57.366Z,3.53
2017-08-15T09:37:25.026Z,2.70
2017-08-15T09:39:52.724Z,3.10
2017-08-15T09:42:20.449Z,3.40
2017-08-15T09:44:48.103Z,2.83
2017-08-15T09:47:15.842Z,3.67
2017-08-15T09:49:43.493Z,2.80
2017-08-15T09:52:11.962Z,3.50
2017-08-15T09:54:40.383Z,3.20
2017-08-15T09:57:08.086Z,3.40
2017-08-15T09:59:35.731Z,3.30
2017-08-15T10:02:03.444Z,3.20
2017-08-15T10:04:31.107Z,3.13
2017-08-15T10:06:58.802Z,3.70
2017-08-15T10:09:26.494Z,3.43
2017-08-15T10:11:54.982Z,3.40
2017-08-15T10:14:23.404Z,3.50
2017-08-15T10:16:51.141Z,3.27
2017-08-15T10:19:18.795Z,3.03
2017-08-15T10:21:46.601Z,4.37
2017-08-15T10:24:14.262Z,3.93
2017-08-15T10:26:41.952Z,3.40
2017-08-15T10:29:10.363Z,3.27
2017-08-15T10:31:38.051Z,3.97
2017-08-15T10:34:05.704Z,3.40
2017-08-15T10:36:33.363Z,3.30
2017-08-15T10:39:01.063Z,3.57
2017-08-15T10:41:29.485Z,3.20
2017-08-15T10:43:57.210Z,3.67
2017-08-15T10:46:25.626Z,3.27
2017-08-15T10:48:53.328Z,3.50
2017-08-15T10:51:20.987Z,3.90
2017-08-15T10:53:48.695Z,3.67
2017-08-15T10:56:16.374Z,3.33
2017-08-15T10:58:44.107Z,3.93
2017-08-15T11:01:11.775Z,3.43
2017-08-15T11:03:39.494Z,3.90
2017-08-15T11:06:07.184Z,3.33
2017-08-15T11:08:34.915Z,3.83
2017-08-15T11:11:02.573Z,3.60
2017-08-15T11:13:30.270Z,3.63
2017-08-15T11:15:57.919Z,3.60
2017-08-15T11:18:25.612Z,3.50
2017-08-15T11:20:53.309Z,9.60
2017-08-15T11:23:20.998Z,3.90
2017-08-15T11:25:48.655Z,3.70
2017-08-15T11:28:16.353Z,3.27
2017-08-15T11:30:44.008Z,3.53
2017-08-15T11:33:11.663Z,3.20
2017-08-15T11:35:39.359Z,3.23
2017-08-15T11:38:07.014Z,3.30
2017-08-15T11:40:34.702Z,3.43
2017-08-15T11:43:03.131Z,3.23
2017-08-15T11:45:30.860Z,3.53
2017-08-15T11:47:58.507Z,3.20
2017-08-15T11:50:26.204Z,3.23
2017-08-15T11:52:53.850Z,3.17
2017-08-15T11:55:21.544Z,3.50
2017-08-15T11:57:49.191Z,3.10
2017-08-15T12:00:16.899Z,3.20
2017-08-15T12:02:45.318Z,2.87
2017-08-15T12:05:13.007Z,2.90
2017-08-15T12:07:40.701Z,3.33
2017-08-15T12:10:09.156Z,3.10
2017-08-15T12:12:36.816Z,3.00
2017-08-15T12:15:04.524Z,3.60
2017-08-15T12:17:32.418Z,3.17
2017-08-15T12:20:00.106Z,3.20
2017-08-15T12:22:28.026Z,2.67
2017-08-15T12:24:55.902Z,3.23
2017-08-15T12:27:24.489Z,3.70
2017-08-15T12:29:52.194Z,3.10
2017-08-15T12:32:19.860Z,3.40
2017-08-15T12:34:48.276Z,3.53
2017-08-15T12:37:15.970Z,3.20
2017-08-15T12:39:43.627Z,3.10
2017-08-15T12:42:11.334Z,3.40
2017-08-15T12:44:38.991Z,3.37
2017-08-15T12:47:06.700Z,11.80
2017-08-15T12:49:34.356Z,4.27
2017-08-15T12:52:02.054Z,7.27
2017-08-15T12:54:30.476Z,6.70
2017-08-15T12:56:58.176Z,5.43
2017-08-15T12:59:26.603Z,3.80
2017-08-15T13:01:54.331Z,3.67
2017-08-15T13:04:22.031Z,3.60
2017-08-15T13:06:49.745Z,4.30
2017-08-15T13:09:18.227Z,2.40
2017-08-15T13:11:49.619Z,3.27
2017-08-15T13:17:09.500Z,3.90
2017-08-15T19:52:38.762Z,7.53
2017-08-15T19:55:07.114Z,7.30
2017-08-15T19:57:35.611Z,6.77
2017-08-15T20:00:03.330Z,7.37
2017-08-15T20:02:31.190Z,6.53
2017-08-15T20:04:58.891Z,6.70
2017-08-15T20:07:26.548Z,6.30
2017-08-15T20:09:54.343Z,7.87
2017-08-15T20:12:22.783Z,6.47
2017-08-15T20:14:50.495Z,8.73
2017-08-15T20:17:18.150Z,7.77
2017-08-15T20:19:46.607Z,8.43
2017-08-15T20:22:14.263Z,8.70
2017-08-15T20:24:41.950Z,9.60
2017-08-15T20:27:10.407Z,7.57
2017-08-15T20:29:38.250Z,7.60
2017-08-15T20:32:05.939Z,7.70
2017-08-15T20:34:34.532Z,7.83
2017-08-15T20:37:07.940Z,7.43
2017-08-15T20:39:35.672Z,7.50
2017-08-15T20:42:04.220Z,7.50
2017-08-15T20:44:31.971Z,7.90
2017-08-15T20:46:59.877Z,7.00
2017-08-15T20:49:27.599Z,8.40
2017-08-15T20:51:55.755Z,7.30
2017-08-15T20:54:23.410Z,8.27
2017-08-15T20:56:51.113Z,7.50
2017-08-15T20:59:18.827Z,6.77
2017-08-15T21:01:46.527Z,7.20
2017-08-15T21:04:14.352Z,7.27
2017-08-15T21:06:42.043Z,7.27
2017-08-15T21:09:10.355Z,7.33
2017-08-15T21:11:38.096Z,6.80
2017-08-15T21:14:05.761Z,7.60
2017-08-15T21:16:33.465Z,7.33
2017-08-15T21:19:01.115Z,8.10
2017-08-15T21:21:28.821Z,7.33
2017-08-15T21:23:56.512Z,9.13
2017-08-15T21:26:24.220Z,8.00
2017-08-15T21:28:51.937Z,7.90
2017-08-15T21:31:19.644Z,8.03
2017-08-15T21:33:47.303Z,7.23
2017-08-15T21:36:14.999Z,7.13
2017-08-15T21:38:42.653Z,7.43
2017-08-15T21:41:10.354Z,7.20
2017-08-15T21:43:38.038Z,7.23
2017-08-15T21:46:05.754Z,7.30
2017-08-15T21:48:33.419Z,7.80
2017-08-15T21:51:01.875Z,6.80
2017-08-15T21:53:29.608Z,6.67
2017-08-15T21:55:57.276Z,7.73
2017-08-15T21:58:24.974Z,7.57
2017-08-15T22:00:58.346Z,7.90
2017-08-15T22:03:26.064Z,7.80
2017-08-15T22:05:53.843Z,8.10
2017-08-15T22:08:21.566Z,7.20
2017-08-15T22:10:49.401Z,7.07
2017-08-15T22:13:17.872Z,7.10
2017-08-15T22:15:45.539Z,7.83
2017-08-15T22:18:13.238Z,7.50
2017-08-15T22:20:40.930Z,7.70
2017-08-15T22:23:08.619Z,6.97
2017-08-15T22:25:36.275Z,6.80
2017-08-15T22:28:04.014Z,6.97
2017-08-15T22:30:31.755Z,7.60
2017-08-15T22:32:59.466Z,5.90
2017-08-15T22:35:27.968Z,7.00
2017-08-15T22:37:55.660Z,6.13
2017-08-15T22:40:23.332Z,6.00
2017-08-15T22:42:51.034Z,7.57
2017-08-15T22:45:18.695Z,6.93
2017-08-15T22:47:46.367Z,6.50
2017-08-15T22:50:14.062Z,7.00
2017-08-15T22:52:41.738Z,6.30
2017-08-15T22:55:09.439Z,6.73
2017-08-15T22:57:37.114Z,7.03
2017-08-15T23:00:04.824Z,6.70
2017-08-15T23:02:32.524Z,6.50
2017-08-15T23:05:00.335Z,6.90
2017-08-15T23:07:27.987Z,7.33
2017-08-15T23:09:55.951Z,7.60
2017-08-15T23:12:24.495Z,8.10
2017-08-15T23:14:52.295Z,7.37
2017-08-15T23:17:22.083Z,8.20
2017-08-15T23:19:49.785Z,8.27
2017-08-15T23:22:17.436Z,8.00
2017-08-15T23:24:45.136Z,7.57
2017-08-15T23:27:12.796Z,7.80
2017-08-15T23:29:40.496Z,7.60
2017-08-15T23:32:08.146Z,7.10
2017-08-15T23:34:35.851Z,8.03
2017-08-15T23:37:03.507Z,8.37
2017-08-15T23:39:31.203Z,9.73
2017-08-15T23:41:58.843Z,8.30
2017-08-15T23:44:27.302Z,8.50
2017-08-15T23:46:54.956Z,8.40
2017-08-15T23:49:22.608Z,7.90
2017-08-15T23:51:50.301Z,8.17
2017-08-15T23:54:17.963Z,8.37
2017-08-15T23:56:45.660Z,9.60
2017-08-15T23:59:13.326Z,9.00
